Sanborn, Nebraska
Current Conditions -  °F | °C
As of 2:15 AM on Monday 22 Dec 2014 (Local Time) from K2V5 Reporting Station
Clear Clear  
Wind Chill: 29°   Ceiling: Unl
Heat Index: 37°   Visibility: 10mi
Dew Point: 31°   Wind: 13mph
Humidity: 79%   Direction: 300°WNW
Pressure: 29.62"   Gusts: NA
Location:  40.1596°N, 101.947°W
Report Text: K2V5 220915Z AUTO 30011KT 10SM CLR 03/00 A2962 RMK AO2 T00281005
Loading
Personal Weather Stations






























Interactive Weather Map New forecast layout! Learn more

10-Day Weather Forecast

Advertisements
Track Severe Weather on mobile